SWA936 KPHX-KLAX
Flight info
| Callsign | SWA936 |
|---|---|
| Flight time | N/A |
| Altitude | 38000 |
| Route | KEENS3 WLVRN ESTWD HLYWD1 |
| Aircraft | B737/M-SDE2E3FGHIRWXY/LB1 |
Departure
| Time | 2026-05-08 00:32 |
|---|---|
| Airport | Phoenix Sky Harbor International Airport (KPHX) |
Arrival
| Time | N/A |
|---|---|
| Airport | Los Angeles International Airport (KLAX) |
| Time | Latitude | Longitude | Altitude | Speed | Heading |
|---|---|---|---|---|---|
| 2026-05-08 00:17 | 33.43392 | -111.99993 | 1117 ft | 0 kts | 87° |
| 2026-05-08 00:26 | 33.43391 | -112.00006 | 1118 ft | 3 kts | 97° |
| 2026-05-08 00:27 | 33.43397 | -112.00027 | 1119 ft | 3 kts | 131° |
| 2026-05-08 00:27 | 33.43411 | -112.00040 | 1114 ft | 3 kts | 170° |
| 2026-05-08 00:27 | 33.43421 | -112.00041 | 1119 ft | 1 kts | 180° |
| 2026-05-08 00:27 | 33.43423 | -112.00041 | 1119 ft | 0 kts | 180° |
| 2026-05-08 00:29 | 33.43422 | -112.00041 | 1119 ft | 1 kts | 180° |
| 2026-05-08 00:29 | 33.43383 | -112.00041 | 1118 ft | 8 kts | 179° |
| 2026-05-08 00:29 | 33.43323 | -112.00040 | 1118 ft | 8 kts | 173° |
| 2026-05-08 00:29 | 33.43285 | -111.99993 | 1121 ft | 9 kts | 99° |
| 2026-05-08 00:30 | 33.43284 | -111.99900 | 1117 ft | 14 kts | 90° |
| 2026-05-08 00:30 | 33.43284 | -111.99761 | 1119 ft | 18 kts | 90° |
| 2026-05-08 00:30 | 33.43282 | -111.99608 | 1120 ft | 19 kts | 90° |
| 2026-05-08 00:30 | 33.43282 | -111.99448 | 1118 ft | 19 kts | 89° |
| 2026-05-08 00:31 | 33.43225 | -111.99347 | 1120 ft | 17 kts | 180° |
| 2026-05-08 00:31 | 33.43118 | -111.99348 | 1118 ft | 9 kts | 188° |
| 2026-05-08 00:31 | 33.43105 | -111.99380 | 1121 ft | 0 kts | 270° |
| 2026-05-08 00:31 | 33.43105 | -111.99441 | 1122 ft | 36 kts | 270° |
| 2026-05-08 00:32 | 33.43105 | -112.00090 | 1124 ft | 118 kts | 270° |
| 2026-05-08 00:32 | 33.43107 | -112.01375 | 1210 ft | 179 kts | 271° |
| 2026-05-08 00:32 | 33.43111 | -112.02933 | 1950 ft | 198 kts | 270° |
| 2026-05-08 00:32 | 33.43141 | -112.04650 | 2656 ft | 212 kts | 272° |
| 2026-05-08 00:33 | 33.43206 | -112.06437 | 3456 ft | 219 kts | 270° |
| 2026-05-08 00:33 | 33.42908 | -112.08276 | 3910 ft | 236 kts | 244° |
| 2026-05-08 00:33 | 33.42145 | -112.10135 | 4199 ft | 263 kts | 247° |
| 2026-05-08 00:33 | 33.41412 | -112.12207 | 4958 ft | 269 kts | 249° |
| 2026-05-08 00:34 | 33.40736 | -112.14281 | 6019 ft | 268 kts | 250° |
| 2026-05-08 00:34 | 33.40077 | -112.16376 | 6893 ft | 272 kts | 250° |
| 2026-05-08 00:34 | 33.39414 | -112.18532 | 7634 ft | 280 kts | 253° |
| 2026-05-08 00:34 | 33.39187 | -112.20836 | 8342 ft | 287 kts | 278° |
| 2026-05-08 00:35 | 33.39510 | -112.23231 | 9144 ft | 292 kts | 282° |
| 2026-05-08 00:35 | 33.39884 | -112.25656 | 9901 ft | 299 kts | 283° |
| 2026-05-08 00:35 | 33.40271 | -112.28135 | 10490 ft | 312 kts | 283° |
| 2026-05-08 00:35 | 33.40681 | -112.30779 | 10676 ft | 338 kts | 283° |
| 2026-05-08 00:36 | 33.41119 | -112.33641 | 10945 ft | 359 kts | 282° |
| 2026-05-08 00:36 | 33.41568 | -112.36638 | 11628 ft | 363 kts | 283° |
| 2026-05-08 00:36 | 33.42008 | -112.39613 | 12470 ft | 365 kts | 283° |
| 2026-05-08 00:36 | 33.42449 | -112.42597 | 13167 ft | 371 kts | 283° |
| 2026-05-08 00:37 | 33.42904 | -112.45685 | 13843 ft | 377 kts | 283° |
| 2026-05-08 00:37 | 33.43208 | -112.47744 | 14198 ft | 383 kts | 283° |
| 2026-05-08 00:37 | 33.43830 | -112.51980 | 14984 ft | 390 kts | 283° |
| 2026-05-08 00:38 | 33.44621 | -112.57380 | 16089 ft | 398 kts | 283° |
| 2026-05-08 00:38 | 33.45081 | -112.60673 | 16713 ft | 404 kts | 279° |
| 2026-05-08 00:38 | 33.45245 | -112.64029 | 17308 ft | 411 kts | 272° |
| 2026-05-08 00:38 | 33.45226 | -112.67507 | 17932 ft | 417 kts | 271° |
| 2026-05-08 00:39 | 33.45192 | -112.70988 | 18483 ft | 421 kts | 271° |
| 2026-05-08 00:39 | 33.45201 | -112.74481 | 19068 ft | 423 kts | 272° |
| 2026-05-08 00:39 | 33.45243 | -112.78033 | 19680 ft | 425 kts | 274° |
| 2026-05-08 00:39 | 33.45690 | -112.81477 | 20357 ft | 418 kts | 292° |
| 2026-05-08 00:40 | 33.46773 | -112.84701 | 21044 ft | 416 kts | 296° |
| 2026-05-08 00:40 | 33.47920 | -112.87876 | 21533 ft | 420 kts | 297° |
| 2026-05-08 00:40 | 33.49099 | -112.91107 | 22029 ft | 425 kts | 297° |
| 2026-05-08 00:40 | 33.50283 | -112.94382 | 22580 ft | 427 kts | 297° |
| 2026-05-08 00:41 | 33.51460 | -112.97676 | 23129 ft | 430 kts | 296° |
| 2026-05-08 00:41 | 33.52629 | -113.00982 | 23620 ft | 432 kts | 296° |
| 2026-05-08 00:41 | 33.53785 | -113.04275 | 24028 ft | 435 kts | 296° |
| 2026-05-08 00:41 | 33.54970 | -113.07666 | 24470 ft | 437 kts | 296° |
| 2026-05-08 00:42 | 33.56147 | -113.11046 | 24905 ft | 440 kts | 296° |
| 2026-05-08 00:42 | 33.57329 | -113.14444 | 25344 ft | 442 kts | 296° |
| 2026-05-08 00:42 | 33.58512 | -113.17849 | 25756 ft | 444 kts | 296° |
| 2026-05-08 00:42 | 33.59708 | -113.21294 | 26159 ft | 447 kts | 296° |
| 2026-05-08 00:43 | 33.60907 | -113.24748 | 26535 ft | 450 kts | 297° |
| 2026-05-08 00:43 | 33.62127 | -113.28268 | 26917 ft | 452 kts | 297° |
| 2026-05-08 00:43 | 33.63323 | -113.31722 | 27286 ft | 455 kts | 297° |
| 2026-05-08 00:43 | 33.64540 | -113.35241 | 27662 ft | 457 kts | 297° |
| 2026-05-08 00:44 | 33.65760 | -113.38775 | 28039 ft | 459 kts | 297° |
| 2026-05-08 00:44 | 33.66987 | -113.42328 | 28380 ft | 462 kts | 297° |
| 2026-05-08 00:44 | 33.68218 | -113.45902 | 28840 ft | 464 kts | 297° |
| 2026-05-08 00:44 | 33.69454 | -113.49491 | 29198 ft | 466 kts | 297° |
| 2026-05-08 00:45 | 33.70693 | -113.53093 | 29521 ft | 468 kts | 297° |
| 2026-05-08 00:45 | 33.71942 | -113.56731 | 29817 ft | 471 kts | 297° |
| 2026-05-08 00:45 | 33.73193 | -113.60379 | 30170 ft | 471 kts | 297° |
| 2026-05-08 00:45 | 33.74437 | -113.64012 | 30582 ft | 469 kts | 297° |
| 2026-05-08 00:46 | 33.75678 | -113.67640 | 30905 ft | 467 kts | 297° |
| 2026-05-08 00:46 | 33.76911 | -113.71249 | 31276 ft | 467 kts | 297° |
| 2026-05-08 00:46 | 33.78148 | -113.74866 | 31588 ft | 467 kts | 297° |
| 2026-05-08 00:46 | 33.79380 | -113.78476 | 31911 ft | 467 kts | 297° |
| 2026-05-08 00:47 | 33.80607 | -113.82081 | 32299 ft | 465 kts | 297° |
| 2026-05-08 00:47 | 33.81828 | -113.85681 | 32638 ft | 464 kts | 297° |
| 2026-05-08 00:47 | 33.83045 | -113.89277 | 32947 ft | 464 kts | 297° |
| 2026-05-08 00:47 | 33.84264 | -113.92884 | 33258 ft | 464 kts | 297° |
| 2026-05-08 00:48 | 33.85474 | -113.96471 | 33606 ft | 462 kts | 297° |
| 2026-05-08 00:48 | 33.86680 | -114.00048 | 33922 ft | 461 kts | 297° |
| 2026-05-08 00:48 | 33.87886 | -114.03627 | 34190 ft | 461 kts | 297° |
| 2026-05-08 00:48 | 33.89093 | -114.07211 | 34454 ft | 459 kts | 296° |
| 2026-05-08 00:49 | 33.90270 | -114.10719 | 34772 ft | 457 kts | 296° |
| 2026-05-08 00:49 | 33.91243 | -114.14419 | 35059 ft | 460 kts | 288° |
| 2026-05-08 00:49 | 33.91917 | -114.18137 | 35289 ft | 461 kts | 285° |
| 2026-05-08 00:49 | 33.92511 | -114.21983 | 35495 ft | 462 kts | 284° |
| 2026-05-08 00:50 | 33.93071 | -114.25751 | 35729 ft | 461 kts | 284° |
| 2026-05-08 00:50 | 33.93648 | -114.29538 | 35979 ft | 459 kts | 285° |
| 2026-05-08 00:50 | 33.94245 | -114.33309 | 36226 ft | 458 kts | 285° |
| 2026-05-08 00:50 | 33.94858 | -114.37060 | 36438 ft | 457 kts | 285° |
| 2026-05-08 00:51 | 33.95485 | -114.40817 | 36604 ft | 457 kts | 285° |
| 2026-05-08 00:51 | 33.96121 | -114.44586 | 36745 ft | 458 kts | 285° |
| 2026-05-08 00:51 | 33.96756 | -114.48352 | 36919 ft | 458 kts | 285° |
| 2026-05-08 00:51 | 33.97388 | -114.52104 | 37138 ft | 457 kts | 285° |
| 2026-05-08 00:52 | 33.98018 | -114.55858 | 37350 ft | 456 kts | 285° |
| 2026-05-08 00:52 | 33.98643 | -114.59599 | 37525 ft | 455 kts | 285° |
| 2026-05-08 00:52 | 33.99259 | -114.63291 | 37686 ft | 455 kts | 285° |
| 2026-05-08 00:52 | 33.99882 | -114.67030 | 37821 ft | 456 kts | 285° |
| 2026-05-08 00:53 | 34.00508 | -114.70795 | 37807 ft | 458 kts | 285° |
| 2026-05-08 00:53 | 34.01750 | -114.78307 | 37828 ft | 455 kts | 285° |
| 2026-05-08 00:54 | 34.02979 | -114.85768 | 37826 ft | 452 kts | 285° |
| 2026-05-08 00:54 | 34.04198 | -114.93185 | 37833 ft | 450 kts | 285° |
| 2026-05-08 00:55 | 34.05411 | -115.00592 | 37827 ft | 450 kts | 285° |
| 2026-05-08 00:55 | 34.06618 | -115.07995 | 37837 ft | 449 kts | 285° |
| 2026-05-08 00:56 | 34.07821 | -115.15395 | 37839 ft | 450 kts | 284° |
| 2026-05-08 00:56 | 34.09032 | -115.22874 | 37827 ft | 452 kts | 284° |
| 2026-05-08 00:57 | 34.10237 | -115.30341 | 37847 ft | 453 kts | 284° |
| 2026-05-08 00:57 | 34.11438 | -115.37818 | 37850 ft | 454 kts | 284° |
| 2026-05-08 00:58 | 34.12637 | -115.45317 | 37844 ft | 454 kts | 284° |
| 2026-05-08 00:58 | 34.13829 | -115.52804 | 37855 ft | 454 kts | 284° |
| 2026-05-08 00:59 | 34.15014 | -115.60276 | 37847 ft | 453 kts | 284° |
| 2026-05-08 00:59 | 34.16188 | -115.67738 | 37856 ft | 451 kts | 282° |